createdAt,value
2023-01-29T00:00:22.313Z,8.90
2023-01-29T00:02:49.350Z,8.90
2023-01-29T00:05:27.485Z,8.90
2023-01-29T00:07:56.200Z,8.80
2023-01-29T00:10:24.832Z,8.70
2023-01-29T00:12:51.851Z,8.80
2023-01-29T00:15:18.807Z,8.80
2023-01-29T00:17:45.547Z,8.80
2023-01-29T00:20:12.664Z,8.80
2023-01-29T00:22:39.358Z,9.10
2023-01-29T00:25:06.756Z,8.70
2023-01-29T00:27:33.480Z,8.70
2023-01-29T00:30:12.026Z,8.60
2023-01-29T00:32:40.121Z,8.50
2023-01-29T00:35:08.446Z,8.50
2023-01-29T00:37:35.785Z,8.50
2023-01-29T00:40:02.563Z,8.50
2023-01-29T00:42:48.011Z,8.60
2023-01-29T00:45:15.332Z,8.60
2023-01-29T00:47:42.023Z,8.70
2023-01-29T00:50:11.622Z,8.70
2023-01-29T00:52:40.839Z,8.70
2023-01-29T00:55:09.625Z,8.80
2023-01-29T00:57:37.163Z,8.80
2023-01-29T01:00:05.557Z,8.80
2023-01-29T01:02:51.157Z,8.90
2023-01-29T01:05:18.575Z,8.80
2023-01-29T01:07:50.764Z,8.90
2023-01-29T01:10:20.956Z,8.90
2023-01-29T01:12:53.498Z,8.90
2023-01-29T01:15:20.887Z,8.90
2023-01-29T01:17:48.868Z,8.70
2023-01-29T01:20:16.162Z,8.80
2023-01-29T01:22:43.109Z,8.80
2023-01-29T01:25:10.027Z,8.80
2023-01-29T01:27:40.910Z,8.90
2023-01-29T01:30:14.558Z,8.80
2023-01-29T01:32:42.456Z,8.80
2023-01-29T01:35:11.300Z,8.80
2023-01-29T01:37:38.747Z,8.70
2023-01-29T01:40:12.687Z,8.70
2023-01-29T01:42:40.322Z,8.70
2023-01-29T01:45:18.857Z,8.70
2023-01-29T01:47:50.322Z,8.60
2023-01-29T01:50:42.710Z,8.50
2023-01-29T01:53:26.529Z,8.50
2023-01-29T01:56:00.151Z,8.60
2023-01-29T01:58:40.805Z,8.50
2023-01-29T02:01:09.188Z,8.40
2023-01-29T02:04:02.154Z,8.40
2023-01-29T02:06:47.393Z,8.30
2023-01-29T02:09:34.127Z,8.40
2023-01-29T02:12:05.894Z,8.40
2023-01-29T02:14:38.770Z,8.40
2023-01-29T02:17:08.125Z,8.40
2023-01-29T02:19:49.359Z,8.40
2023-01-29T02:22:20.345Z,8.60
2023-01-29T02:25:09.654Z,8.60
2023-01-29T02:27:48.537Z,8.60
2023-01-29T02:30:22.942Z,8.50
2023-01-29T02:33:26.223Z,8.50
2023-01-29T02:36:23.689Z,8.50
2023-01-29T02:39:02.494Z,8.50
2023-01-29T02:41:44.374Z,8.60
2023-01-29T02:44:30.315Z,8.70
2023-01-29T02:47:16.745Z,8.70
2023-01-29T02:49:56.431Z,8.80
2023-01-29T02:52:28.967Z,8.80
2023-01-29T02:55:04.770Z,8.80
2023-01-29T02:57:39.514Z,8.70
2023-01-29T03:00:20.460Z,8.80
2023-01-29T03:02:59.324Z,8.80
2023-01-29T03:05:32.323Z,8.80
2023-01-29T03:08:06.055Z,8.80
2023-01-29T03:10:55.817Z,8.70
2023-01-29T03:13:37.759Z,8.70
2023-01-29T03:16:25.831Z,8.70
2023-01-29T03:19:31.844Z,8.70
2023-01-29T03:22:04.104Z,8.70
2023-01-29T03:25:06.363Z,8.70
2023-01-29T03:27:57.917Z,8.60
2023-01-29T03:30:46.889Z,8.60
2023-01-29T03:33:54.003Z,8.50
2023-01-29T03:36:38.591Z,8.50
2023-01-29T03:39:07.512Z,8.60
2023-01-29T03:41:50.382Z,8.50
2023-01-29T03:44:53.534Z,8.40
2023-01-29T03:47:42.153Z,8.30
2023-01-29T03:50:45.407Z,8.40
2023-01-29T03:53:44.156Z,8.40
2023-01-29T03:56:38.767Z,8.30
2023-01-29T03:59:19.108Z,8.30
2023-01-29T04:02:07.421Z,8.40
2023-01-29T04:04:36.911Z,8.30
2023-01-29T04:07:12.878Z,8.40
2023-01-29T04:09:45.543Z,8.40
2023-01-29T04:12:15.854Z,8.30
2023-01-29T04:14:45.908Z,8.30
2023-01-29T04:17:22.770Z,8.30
2023-01-29T04:20:03.300Z,8.40
2023-01-29T04:22:37.466Z,8.40
2023-01-29T04:25:18.242Z,8.40
2023-01-29T04:28:05.192Z,8.50
2023-01-29T04:30:34.876Z,8.40
2023-01-29T04:33:26.120Z,8.40
2023-01-29T04:36:10.915Z,8.40
2023-01-29T04:38:50.983Z,8.40
2023-01-29T04:41:36.162Z,8.40
2023-01-29T04:44:32.119Z,9.10
2023-01-29T04:47:22.409Z,8.30
2023-01-29T04:50:23.482Z,8.30
2023-01-29T04:53:04.568Z,8.30
2023-01-29T04:55:53.299Z,8.30
2023-01-29T04:58:23.063Z,8.30
2023-01-29T05:00:54.290Z,8.30
2023-01-29T05:03:25.769Z,8.20
2023-01-29T05:05:55.723Z,8.20
2023-01-29T05:08:25.146Z,8.20
2023-01-29T05:10:53.949Z,8.10
2023-01-29T05:13:23.287Z,8.10
2023-01-29T05:16:01.755Z,8.10
2023-01-29T05:18:30.445Z,8.10
2023-01-29T05:20:58.923Z,8.10
2023-01-29T05:23:25.786Z,8.00
2023-01-29T05:25:52.767Z,8.00
2023-01-29T05:28:19.549Z,8.00
2023-01-29T05:30:49.486Z,8.00
2023-01-29T05:33:30.814Z,8.10
2023-01-29T05:35:59.890Z,8.20
2023-01-29T05:38:26.847Z,8.20
2023-01-29T05:40:54.384Z,8.30
2023-01-29T05:43:23.693Z,8.20
2023-01-29T05:45:58.872Z,8.20
2023-01-29T05:48:28.702Z,8.20
2023-01-29T05:51:00.547Z,8.20
2023-01-29T05:53:29.225Z,8.20
2023-01-29T05:55:57.198Z,8.10
2023-01-29T05:58:24.621Z,8.10
2023-01-29T06:00:51.377Z,8.10
2023-01-29T06:03:18.237Z,8.20
2023-01-29T06:05:45.162Z,8.20
2023-01-29T06:08:12.125Z,8.20
2023-01-29T06:10:38.889Z,8.10
2023-01-29T06:13:05.668Z,8.20
2023-01-29T06:15:32.341Z,8.10
2023-01-29T06:17:59.137Z,8.10
2023-01-29T06:20:25.911Z,8.10
2023-01-29T06:22:52.659Z,8.10
2023-01-29T06:25:19.406Z,8.10
2023-01-29T06:27:46.118Z,8.00
2023-01-29T06:30:13.399Z,8.10
2023-01-29T06:32:40.208Z,8.10
2023-01-29T06:35:07.652Z,8.10
2023-01-29T06:37:34.387Z,8.10
2023-01-29T06:40:01.254Z,8.00
2023-01-29T06:42:28.206Z,8.00
2023-01-29T06:44:56.134Z,8.00
2023-01-29T06:47:23.703Z,8.00
2023-01-29T06:49:50.702Z,8.00
2023-01-29T06:52:17.464Z,8.10
2023-01-29T06:54:44.150Z,8.10
2023-01-29T06:57:10.931Z,8.10
2023-01-29T06:59:37.637Z,8.10
2023-01-29T07:02:04.684Z,8.10
2023-01-29T07:04:31.519Z,8.90
2023-01-29T07:07:00.044Z,8.20
2023-01-29T07:09:26.840Z,8.30
2023-01-29T07:11:53.605Z,8.20
2023-01-29T07:14:20.349Z,8.20
2023-01-29T07:16:47.118Z,8.20
2023-01-29T07:19:14.215Z,8.10
2023-01-29T07:21:40.902Z,8.30
2023-01-29T07:24:07.977Z,8.20
2023-01-29T07:26:34.698Z,8.20
2023-01-29T07:29:01.430Z,8.10
2023-01-29T07:31:28.340Z,8.00
2023-01-29T07:33:55.894Z,8.10
2023-01-29T07:36:24.053Z,8.00
2023-01-29T07:38:51.657Z,8.00
2023-01-29T07:41:18.846Z,8.00
2023-01-29T07:43:46.592Z,8.10
2023-01-29T07:46:13.608Z,8.00
2023-01-29T07:48:40.332Z,8.70
2023-01-29T07:51:07.075Z,8.10
2023-01-29T07:53:33.961Z,8.10
2023-01-29T07:56:00.760Z,8.10
2023-01-29T07:58:27.510Z,8.00
2023-01-29T08:00:54.237Z,8.10
2023-01-29T08:03:21.158Z,8.00
2023-01-29T08:05:48.130Z,8.00
2023-01-29T08:08:15.036Z,8.00
2023-01-29T08:10:42.431Z,8.00
2023-01-29T08:13:09.535Z,8.00
2023-01-29T08:15:38.744Z,8.60
2023-01-29T08:18:06.590Z,8.10
2023-01-29T08:20:33.499Z,8.90
2023-01-29T08:23:02.108Z,8.10
2023-01-29T08:25:29.547Z,8.10
2023-01-29T08:27:57.858Z,8.20
2023-01-29T08:30:26.905Z,8.20
2023-01-29T08:32:53.727Z,8.30
2023-01-29T08:35:21.278Z,8.20
2023-01-29T08:37:54.711Z,8.30
2023-01-29T08:40:21.714Z,8.40
2023-01-29T08:42:48.566Z,8.40
2023-01-29T08:45:15.628Z,8.40
2023-01-29T08:47:49.693Z,8.40
2023-01-29T08:50:20.017Z,8.50
2023-01-29T08:52:47.127Z,8.50
2023-01-29T08:55:14.055Z,8.50
2023-01-29T08:57:40.966Z,8.60
2023-01-29T09:00:09.305Z,8.60
2023-01-29T09:02:36.811Z,8.60
2023-01-29T09:05:03.731Z,8.60
2023-01-29T09:07:30.430Z,8.60
2023-01-29T09:09:58.238Z,8.60
2023-01-29T09:12:25.370Z,8.50
2023-01-29T09:14:52.253Z,8.60
2023-01-29T09:17:19.101Z,8.70
2023-01-29T09:19:45.890Z,8.60
2023-01-29T09:22:12.887Z,8.60
2023-01-29T09:24:39.733Z,8.60
2023-01-29T09:27:06.713Z,9.10
2023-01-29T09:29:35.755Z,8.60
2023-01-29T09:32:04.411Z,8.70
2023-01-29T09:34:31.169Z,8.60
2023-01-29T09:36:57.904Z,8.60
2023-01-29T09:39:24.675Z,8.70
2023-01-29T09:41:58.339Z,8.80
2023-01-29T09:44:39.166Z,8.80
2023-01-29T09:47:11.123Z,8.90
2023-01-29T09:49:43.517Z,8.90
2023-01-29T09:52:24.975Z,8.90
2023-01-29T09:55:06.149Z,8.90
2023-01-29T09:57:38.589Z,8.90
2023-01-29T10:00:06.042Z,8.90
2023-01-29T10:02:38.793Z,9.00
2023-01-29T10:05:08.312Z,8.90
2023-01-29T10:08:00.652Z,9.00
2023-01-29T10:10:46.217Z,9.10
2023-01-29T10:13:33.921Z,9.00
2023-01-29T10:16:25.950Z,9.10
2023-01-29T10:19:20.689Z,9.10
2023-01-29T10:21:56.204Z,9.00
2023-01-29T10:25:01.303Z,9.00
2023-01-29T10:27:44.755Z,9.00
2023-01-29T10:30:40.254Z,9.10
2023-01-29T10:33:17.103Z,8.90
2023-01-29T10:35:50.009Z,9.00
2023-01-29T10:38:41.998Z,9.00
2023-01-29T10:41:17.950Z,9.00
2023-01-29T10:43:44.694Z,8.90
2023-01-29T10:46:34.800Z,8.90
2023-01-29T10:49:37.684Z,8.90
2023-01-29T10:52:28.648Z,9.00
2023-01-29T10:55:19.539Z,9.00
2023-01-29T10:57:58.161Z,9.10
2023-01-29T11:00:27.989Z,9.10
2023-01-29T11:02:54.792Z,9.00
2023-01-29T11:05:34.825Z,9.10
2023-01-29T11:08:16.048Z,9.00
2023-01-29T11:11:29.466Z,9.00
2023-01-29T11:14:07.190Z,9.10
2023-01-29T11:16:42.772Z,9.20
2023-01-29T11:19:10.531Z,9.20
2023-01-29T11:22:01.298Z,9.90
2023-01-29T11:24:28.490Z,9.30
2023-01-29T11:26:57.695Z,9.30
2023-01-29T11:29:27.649Z,9.30
2023-01-29T11:31:54.915Z,9.20
2023-01-29T11:34:27.571Z,9.30
2023-01-29T11:36:59.862Z,9.20
2023-01-29T11:39:28.721Z,9.20
2023-01-29T11:42:01.246Z,9.20
2023-01-29T11:44:41.471Z,9.10
2023-01-29T11:47:24.104Z,9.20
2023-01-29T11:49:54.623Z,9.10
2023-01-29T11:52:24.800Z,9.10
2023-01-29T11:55:07.281Z,9.10
2023-01-29T11:57:42.149Z,9.10
2023-01-29T12:00:18.394Z,9.00
2023-01-29T12:02:55.439Z,9.00
2023-01-29T12:05:27.110Z,9.00
2023-01-29T12:07:59.917Z,8.70
2023-01-29T12:10:38.692Z,9.00
2023-01-29T12:13:19.788Z,9.00
2023-01-29T12:15:48.619Z,9.00
2023-01-29T12:18:27.422Z,9.00
2023-01-29T12:21:05.364Z,9.10
2023-01-29T12:24:03.467Z,9.00
2023-01-29T12:26:48.071Z,9.00
2023-01-29T12:29:14.719Z,9.10
2023-01-29T12:31:54.730Z,9.10
2023-01-29T12:34:46.360Z,9.00
2023-01-29T12:37:22.513Z,9.00
2023-01-29T12:39:52.241Z,9.00
2023-01-29T12:42:22.605Z,9.10
2023-01-29T12:44:52.145Z,9.20
2023-01-29T12:47:42.984Z,9.10
2023-01-29T12:50:21.524Z,9.20
2023-01-29T12:52:58.348Z,9.20
2023-01-29T12:55:47.649Z,9.10
2023-01-29T12:58:25.035Z,9.20
2023-01-29T13:00:57.236Z,9.20
2023-01-29T13:03:34.660Z,9.00
2023-01-29T13:06:09.943Z,9.10
2023-01-29T13:08:41.779Z,9.10
2023-01-29T13:11:14.472Z,9.20
2023-01-29T13:13:54.042Z,9.10
2023-01-29T13:16:26.176Z,9.10
2023-01-29T13:19:27.594Z,9.20
2023-01-29T13:21:57.490Z,9.10
2023-01-29T13:24:27.282Z,9.20
2023-01-29T13:26:54.106Z,9.10
2023-01-29T13:29:29.770Z,9.10
2023-01-29T13:32:03.216Z,9.30
2023-01-29T13:34:44.298Z,9.40
2023-01-29T13:37:28.123Z,9.50
2023-01-29T13:39:57.017Z,9.50
2023-01-29T13:42:31.627Z,9.60
2023-01-29T13:45:02.828Z,9.70
2023-01-29T13:47:32.921Z,9.70
2023-01-29T13:50:18.055Z,9.80
2023-01-29T13:52:54.467Z,9.80
2023-01-29T13:55:32.229Z,9.70
2023-01-29T13:58:04.536Z,9.60
2023-01-29T14:00:34.315Z,9.70
2023-01-29T14:03:01.072Z,9.60
2023-01-29T14:05:30.754Z,9.70
2023-01-29T14:07:59.308Z,9.70
2023-01-29T14:10:30.697Z,9.70
2023-01-29T14:13:17.921Z,9.70
2023-01-29T14:15:56.863Z,9.70
2023-01-29T14:18:28.128Z,9.70
2023-01-29T14:20:58.688Z,9.70
2023-01-29T14:23:51.074Z,9.60
2023-01-29T14:26:43.596Z,9.70
2023-01-29T14:29:18.832Z,9.60
2023-01-29T14:31:59.201Z,9.60
2023-01-29T14:34:47.628Z,9.60
2023-01-29T14:37:17.186Z,9.50
2023-01-29T14:39:57.565Z,10.30
2023-01-29T14:42:29.479Z,9.60
2023-01-29T14:45:13.285Z,9.60
2023-01-29T14:47:39.985Z,9.60
2023-01-29T14:50:28.508Z,9.60
2023-01-29T14:53:00.170Z,9.60
2023-01-29T14:55:37.141Z,9.50
2023-01-29T14:58:04.420Z,9.50
2023-01-29T15:00:36.742Z,9.60
2023-01-29T15:03:12.203Z,9.50
2023-01-29T15:05:39.852Z,9.60
2023-01-29T15:08:15.782Z,9.50
2023-01-29T15:11:13.890Z,9.40
2023-01-29T15:14:13.211Z,9.40
2023-01-29T15:17:00.598Z,9.50
2023-01-29T15:19:52.958Z,9.50
2023-01-29T15:22:22.242Z,9.50
2023-01-29T15:25:07.182Z,9.50
2023-01-29T15:27:34.449Z,9.50
2023-01-29T15:30:04.637Z,9.50
2023-01-29T15:32:37.325Z,9.40
2023-01-29T15:35:37.408Z,9.40
2023-01-29T15:38:14.133Z,9.40
2023-01-29T15:40:41.068Z,9.40
2023-01-29T15:43:43.522Z,9.30
2023-01-29T15:46:20.225Z,9.30
2023-01-29T15:48:49.070Z,9.20
2023-01-29T15:51:19.723Z,9.30
2023-01-29T15:53:54.843Z,9.30
2023-01-29T15:56:29.284Z,9.40
2023-01-29T15:58:58.952Z,9.40
2023-01-29T16:01:29.984Z,9.40
2023-01-29T16:04:02.385Z,9.70
2023-01-29T16:06:36.553Z,9.20
2023-01-29T16:09:05.101Z,9.20
2023-01-29T16:11:33.921Z,9.20
2023-01-29T16:14:02.519Z,9.20
2023-01-29T16:16:29.394Z,9.20
2023-01-29T16:19:01.048Z,9.20
2023-01-29T16:21:39.732Z,9.10
2023-01-29T16:24:12.067Z,9.10
2023-01-29T16:26:44.787Z,9.00
2023-01-29T16:29:16.198Z,9.00
2023-01-29T16:31:45.764Z,8.90
2023-01-29T16:34:32.980Z,8.90
2023-01-29T16:37:02.401Z,8.90
2023-01-29T16:39:32.573Z,8.80
2023-01-29T16:42:19.682Z,8.90
2023-01-29T16:44:50.863Z,8.90
2023-01-29T16:47:39.055Z,8.90
2023-01-29T16:50:17.929Z,8.90
2023-01-29T16:53:06.761Z,8.90
2023-01-29T16:55:39.376Z,8.80
2023-01-29T16:58:17.395Z,8.90
2023-01-29T17:00:47.327Z,8.90
2023-01-29T17:03:17.105Z,8.90
2023-01-29T17:05:44.906Z,9.00
2023-01-29T17:08:34.589Z,9.10
2023-01-29T17:11:02.345Z,9.10
2023-01-29T17:13:40.206Z,9.10
2023-01-29T17:16:25.561Z,9.10
2023-01-29T17:18:52.506Z,9.00
2023-01-29T17:21:19.258Z,9.10
2023-01-29T17:23:46.155Z,9.10
2023-01-29T17:26:14.572Z,9.10
2023-01-29T17:28:42.460Z,9.10
2023-01-29T17:31:09.768Z,9.00
2023-01-29T17:33:41.074Z,9.10
2023-01-29T17:36:16.399Z,9.20
2023-01-29T17:38:43.933Z,9.20
2023-01-29T17:41:26.303Z,9.20
2023-01-29T17:43:53.084Z,9.00
2023-01-29T17:46:20.511Z,9.10
2023-01-29T17:48:49.345Z,9.00
2023-01-29T17:51:18.029Z,9.00
2023-01-29T17:53:46.853Z,9.10
2023-01-29T17:56:34.641Z,9.10
2023-01-29T17:59:01.915Z,9.00
2023-01-29T18:01:28.789Z,9.10
2023-01-29T18:03:55.559Z,9.10
2023-01-29T18:06:28.324Z,9.00
2023-01-29T18:08:56.372Z,9.00
2023-01-29T18:11:23.502Z,9.00
2023-01-29T18:13:50.413Z,9.00
2023-01-29T18:16:18.741Z,9.00
2023-01-29T18:18:45.657Z,9.10
2023-01-29T18:21:12.576Z,9.00
2023-01-29T18:23:39.712Z,9.00
2023-01-29T18:26:07.589Z,9.00
2023-01-29T18:28:34.515Z,9.10
2023-01-29T18:31:02.553Z,9.10
2023-01-29T18:33:29.414Z,9.20
2023-01-29T18:35:56.296Z,9.20
2023-01-29T18:38:23.652Z,9.60
2023-01-29T18:40:50.517Z,9.20
2023-01-29T18:43:17.219Z,9.20
2023-01-29T18:45:44.029Z,9.20
2023-01-29T18:48:10.771Z,9.10
2023-01-29T18:50:37.503Z,9.00
2023-01-29T18:53:04.442Z,9.00
2023-01-29T18:55:31.342Z,9.10
2023-01-29T18:58:28.997Z,9.10
2023-01-29T19:00:47.536Z,9.10
2023-01-29T19:03:14.345Z,9.10
2023-01-29T19:05:41.079Z,9.10
2023-01-29T19:08:08.014Z,9.10
2023-01-29T19:10:34.857Z,9.00
2023-01-29T19:13:01.664Z,9.00
2023-01-29T19:15:28.463Z,9.00
2023-01-29T19:17:55.925Z,9.00
2023-01-29T19:20:22.817Z,9.00
2023-01-29T19:22:49.709Z,9.00
2023-01-29T19:25:17.705Z,9.10
2023-01-29T19:27:45.917Z,9.00
2023-01-29T19:30:12.980Z,9.10
2023-01-29T19:32:40.935Z,9.20
2023-01-29T19:35:07.865Z,9.10
2023-01-29T19:37:34.661Z,9.20
2023-01-29T19:40:01.397Z,9.20
2023-01-29T19:42:28.208Z,9.10
2023-01-29T19:44:54.988Z,9.30
2023-01-29T19:47:21.826Z,9.30
2023-01-29T19:49:48.548Z,9.20
2023-01-29T19:52:49.878Z,9.20
2023-01-29T19:55:19.204Z,9.20
2023-01-29T19:57:46.954Z,9.20
2023-01-29T20:00:15.432Z,9.20
2023-01-29T20:02:42.292Z,9.20
2023-01-29T20:05:11.953Z,9.20
2023-01-29T20:07:42.324Z,9.20
2023-01-29T20:10:11.507Z,9.10
2023-01-29T20:12:38.475Z,9.20
2023-01-29T20:15:07.165Z,9.20
2023-01-29T20:17:33.911Z,9.20
2023-01-29T20:20:00.647Z,9.20
2023-01-29T20:22:29.326Z,9.20
2023-01-29T20:24:56.180Z,9.20
2023-01-29T20:27:23.026Z,9.20
2023-01-29T20:29:52.381Z,9.40
2023-01-29T20:32:19.156Z,9.10
2023-01-29T20:34:49.622Z,9.10
2023-01-29T20:37:16.433Z,9.10
2023-01-29T20:39:43.239Z,9.20
2023-01-29T20:42:10.030Z,9.20
2023-01-29T20:44:36.850Z,9.20
2023-01-29T20:47:04.011Z,9.20
2023-01-29T20:49:31.301Z,9.20
2023-01-29T20:51:58.108Z,9.20
2023-01-29T20:54:24.942Z,9.20
2023-01-29T20:56:51.837Z,9.30
2023-01-29T20:59:18.686Z,9.30
2023-01-29T21:01:45.911Z,9.30
2023-01-29T21:04:12.696Z,9.30
2023-01-29T21:06:39.467Z,9.40
2023-01-29T21:09:06.311Z,9.40
2023-01-29T21:11:33.670Z,9.40
2023-01-29T21:14:01.903Z,9.40
2023-01-29T21:16:29.122Z,9.40
2023-01-29T21:18:59.408Z,9.40
2023-01-29T21:21:26.691Z,9.40
2023-01-29T21:23:54.006Z,9.40
2023-01-29T21:26:20.965Z,9.40
2023-01-29T21:28:47.829Z,9.30
2023-01-29T21:31:16.284Z,9.40
2023-01-29T21:33:43.931Z,9.40
2023-01-29T21:36:11.260Z,10.10
2023-01-29T21:38:38.194Z,9.40
2023-01-29T21:41:08.711Z,9.50
2023-01-29T21:43:35.908Z,9.50
2023-01-29T21:46:05.134Z,9.40
2023-01-29T21:48:32.123Z,9.60
2023-01-29T21:50:58.997Z,9.70
2023-01-29T21:53:25.801Z,9.70
2023-01-29T21:55:52.506Z,9.60
2023-01-29T21:58:20.525Z,9.70
2023-01-29T22:00:48.790Z,9.70
2023-01-29T22:03:15.711Z,9.70
2023-01-29T22:05:42.603Z,9.70
2023-01-29T22:08:09.881Z,9.70
2023-01-29T22:10:37.577Z,9.70
2023-01-29T22:13:04.535Z,10.50
2023-01-29T22:15:31.380Z,9.70
2023-01-29T22:17:58.312Z,9.80
2023-01-29T22:20:30.045Z,9.70
2023-01-29T22:23:00.522Z,9.80
2023-01-29T22:25:27.743Z,9.70
2023-01-29T22:27:54.709Z,9.80
2023-01-29T22:30:23.312Z,9.80
2023-01-29T22:32:50.638Z,9.80
2023-01-29T22:35:17.694Z,9.90
2023-01-29T22:37:45.128Z,9.70
2023-01-29T22:40:13.011Z,9.90
2023-01-29T22:42:39.971Z,9.90
2023-01-29T22:45:07.912Z,9.80
2023-01-29T22:47:34.641Z,9.90
2023-01-29T22:50:01.423Z,9.90
2023-01-29T22:52:28.393Z,9.90
2023-01-29T22:54:55.215Z,9.90
2023-01-29T22:57:22.149Z,9.90
2023-01-29T22:59:48.949Z,9.90
2023-01-29T23:02:15.718Z,10.00
2023-01-29T23:04:42.516Z,9.90
2023-01-29T23:07:09.382Z,9.90
2023-01-29T23:09:36.117Z,9.80
2023-01-29T23:12:04.181Z,9.90
2023-01-29T23:14:30.991Z,9.90
2023-01-29T23:16:57.743Z,9.90
2023-01-29T23:19:24.576Z,10.00
2023-01-29T23:21:51.309Z,10.00
2023-01-29T23:24:18.115Z,10.00
2023-01-29T23:27:03.414Z,10.10
2023-01-29T23:29:30.151Z,10.20
2023-01-29T23:31:56.841Z,10.10
2023-01-29T23:34:23.931Z,10.10
2023-01-29T23:36:50.838Z,10.10
2023-01-29T23:39:18.127Z,10.20
2023-01-29T23:41:44.881Z,10.20
2023-01-29T23:44:11.638Z,10.30
2023-01-29T23:46:38.483Z,10.30
2023-01-29T23:49:05.542Z,10.30
2023-01-29T23:51:32.580Z,10.30
2023-01-29T23:53:59.382Z,10.20
2023-01-29T23:56:26.362Z,10.30
2023-01-29T23:58:57.034Z,10.40
